createdAt,value
2022-08-04T00:01:33.325Z,31.20
2022-08-04T00:04:49.897Z,31.30
2022-08-04T00:08:15.202Z,30.80
2022-08-04T00:11:22.413Z,31.30
2022-08-04T00:14:24.834Z,31.50
2022-08-04T00:17:32.759Z,31.50
2022-08-04T00:20:39.095Z,31.50
2022-08-04T00:24:11.905Z,32.30
2022-08-04T00:27:07.824Z,31.70
2022-08-04T00:30:10.585Z,31.60
2022-08-04T00:33:18.453Z,31.70
2022-08-04T00:36:21.400Z,31.80
2022-08-04T00:39:23.826Z,31.70
2022-08-04T00:42:58.363Z,32.00
2022-08-04T00:46:34.204Z,32.10
2022-08-04T00:50:21.578Z,32.00
2022-08-04T00:53:49.987Z,31.90
2022-08-04T00:57:33.992Z,31.70
2022-08-04T01:00:54.709Z,32.00
2022-08-04T01:04:22.415Z,31.90
2022-08-04T01:07:49.676Z,31.80
2022-08-04T01:11:12.775Z,31.50
2022-08-04T01:14:47.006Z,31.80
2022-08-04T01:18:08.292Z,32.00
2022-08-04T01:21:44.936Z,32.20
2022-08-04T01:25:08.663Z,31.50
2022-08-04T01:28:38.919Z,31.40
2022-08-04T01:32:07.276Z,31.60
2022-08-04T01:35:22.315Z,31.40
2022-08-04T01:38:40.997Z,31.40
2022-08-04T01:41:43.395Z,31.40
2022-08-04T01:45:04.131Z,31.40
2022-08-04T01:48:07.885Z,31.50
2022-08-04T01:51:10.708Z,31.40
2022-08-04T01:54:15.917Z,31.20
2022-08-04T01:57:38.030Z,31.30
2022-08-04T02:00:56.593Z,31.50
2022-08-04T02:04:20.675Z,31.50
2022-08-04T02:07:46.792Z,31.50
2022-08-04T02:11:05.346Z,31.40
2022-08-04T02:14:43.107Z,31.20
2022-08-04T02:18:02.960Z,31.30
2022-08-04T02:21:05.584Z,31.40
2022-08-04T02:24:11.449Z,31.40
2022-08-04T02:27:15.083Z,31.40
2022-08-04T02:30:19.226Z,32.00
2022-08-04T02:33:30.193Z,31.30
2022-08-04T02:36:41.389Z,31.20
2022-08-04T02:39:48.995Z,31.40
2022-08-04T02:42:53.677Z,31.90
2022-08-04T02:45:57.519Z,31.30
2022-08-04T02:49:03.125Z,31.30
2022-08-04T02:52:09.231Z,31.50
2022-08-04T02:55:13.717Z,31.30
2022-08-04T02:58:19.512Z,31.40
2022-08-04T03:01:22.723Z,31.50
2022-08-04T03:04:51.270Z,31.50
2022-08-04T03:08:12.171Z,31.60
2022-08-04T03:11:34.862Z,31.50
2022-08-04T03:15:13.639Z,31.40
2022-08-04T03:18:51.082Z,31.50
2022-08-04T03:22:12.020Z,31.50
2022-08-04T03:25:25.994Z,31.10
2022-08-04T03:28:51.627Z,31.20
2022-08-04T03:32:10.193Z,31.40
2022-08-04T03:35:22.678Z,31.40
2022-08-04T03:39:16.696Z,31.40
2022-08-04T03:42:47.966Z,31.50
2022-08-04T03:45:49.833Z,31.40
2022-08-04T03:49:22.407Z,31.30
2022-08-04T03:53:11.085Z,31.50
2022-08-04T03:56:39.177Z,31.40
2022-08-04T04:00:15.367Z,31.60
2022-08-04T04:03:44.698Z,31.50
2022-08-04T04:07:35.700Z,31.70
2022-08-04T04:11:06.697Z,31.40
2022-08-04T04:14:20.910Z,31.00
2022-08-04T04:17:37.802Z,30.80
2022-08-04T04:20:59.007Z,30.40
2022-08-04T04:24:16.083Z,31.30
2022-08-04T04:27:39.967Z,30.60
2022-08-04T04:31:02.422Z,30.10
2022-08-04T04:34:16.306Z,30.20
2022-08-04T04:37:33.401Z,29.80
2022-08-04T04:41:04.207Z,29.80
2022-08-04T04:44:17.982Z,29.60
2022-08-04T04:48:08.229Z,29.70
2022-08-04T04:51:51.924Z,29.10
2022-08-04T04:54:59.957Z,29.00
2022-08-04T04:58:02.629Z,28.10
2022-08-04T05:01:26.226Z,27.10
2022-08-04T05:04:42.562Z,26.20
2022-08-04T05:08:45.317Z,25.20
2022-08-04T05:11:45.860Z,24.50
2022-08-04T05:14:51.803Z,24.20
2022-08-04T05:17:57.261Z,24.40
2022-08-04T05:21:09.486Z,23.40
2022-08-04T05:24:15.348Z,22.70
2022-08-04T05:27:40.276Z,22.20
2022-08-04T05:30:50.274Z,22.00
2022-08-04T05:34:05.690Z,21.60
2022-08-04T05:37:15.992Z,21.60
2022-08-04T05:40:19.823Z,21.40
2022-08-04T05:43:23.908Z,21.30
2022-08-04T05:46:27.801Z,21.20
2022-08-04T05:49:30.244Z,21.30
2022-08-04T05:52:32.970Z,21.30
2022-08-04T05:55:56.783Z,21.40
2022-08-04T05:58:58.362Z,21.10
2022-08-04T06:02:02.349Z,21.10
2022-08-04T06:05:07.807Z,20.90
2022-08-04T06:08:13.432Z,21.10
2022-08-04T06:11:17.061Z,21.10
2022-08-04T06:14:24.111Z,21.20
2022-08-04T06:19:56.791Z,21.20
2022-08-04T06:21:21.221Z,20.80
2022-08-04T06:24:29.417Z,21.40
2022-08-04T06:27:33.716Z,21.20
2022-08-04T06:30:37.283Z,20.60
2022-08-04T06:33:54.313Z,20.10
2022-08-04T06:36:58.493Z,20.90
2022-08-04T06:40:29.256Z,20.30
2022-08-04T06:43:26.878Z,20.20
2022-08-04T06:46:34.242Z,20.20
2022-08-04T06:49:55.215Z,20.20
2022-08-04T06:53:00.920Z,20.30
2022-08-04T06:56:03.890Z,20.30
2022-08-04T06:59:06.493Z,20.50
2022-08-04T07:02:17.013Z,20.20
2022-08-04T07:05:20.705Z,20.00
2022-08-04T07:08:22.990Z,20.30
2022-08-04T07:11:26.339Z,20.30
2022-08-04T07:14:28.885Z,20.50
2022-08-04T07:17:34.615Z,20.60
2022-08-04T07:20:44.279Z,20.40
2022-08-04T07:23:46.617Z,20.00
2022-08-04T07:26:50.791Z,20.10
2022-08-04T07:29:53.743Z,20.30
2022-08-04T07:32:56.739Z,20.70
2022-08-04T07:36:05.986Z,20.30
2022-08-04T07:39:27.651Z,20.60
2022-08-04T07:42:31.928Z,20.20
2022-08-04T07:45:34.364Z,20.00
2022-08-04T07:48:36.626Z,20.30
2022-08-04T07:51:40.316Z,19.80
2022-08-04T07:54:42.890Z,19.70
2022-08-04T07:57:45.105Z,20.50
2022-08-04T08:00:47.755Z,20.40
2022-08-04T08:03:50.875Z,20.50
2022-08-04T08:06:53.163Z,20.30
2022-08-04T08:09:55.141Z,19.80
2022-08-04T08:12:57.625Z,20.10
2022-08-04T08:16:00.908Z,19.70
2022-08-04T08:19:03.367Z,19.90
2022-08-04T08:22:10.765Z,19.70
2022-08-04T08:25:13.029Z,19.40
2022-08-04T08:28:16.664Z,19.70
2022-08-04T08:31:18.763Z,20.20
2022-08-04T08:34:27.500Z,19.40
2022-08-04T08:37:33.859Z,19.10
2022-08-04T08:40:55.863Z,19.60
2022-08-04T08:44:07.667Z,19.60
2022-08-04T08:47:58.466Z,19.50
2022-08-04T08:51:19.991Z,19.40
2022-08-04T08:54:34.079Z,19.60
2022-08-04T08:58:00.160Z,20.30
2022-08-04T09:01:34.594Z,21.20
2022-08-04T09:04:51.865Z,19.80
2022-08-04T09:08:11.650Z,20.30
2022-08-04T09:11:18.876Z,20.70
2022-08-04T09:14:28.836Z,21.90
2022-08-04T09:17:40.825Z,21.60
2022-08-04T09:20:50.371Z,22.20
2022-08-04T09:24:00.622Z,23.00
2022-08-04T09:27:08.238Z,22.50
2022-08-04T09:30:12.327Z,22.90
2022-08-04T09:33:44.460Z,23.20
2022-08-04T09:36:56.681Z,23.20
2022-08-04T09:40:31.590Z,22.90
2022-08-04T09:44:49.943Z,23.00
2022-08-04T09:48:07.387Z,23.00
2022-08-04T09:51:24.232Z,22.90
2022-08-04T09:55:04.658Z,22.70
2022-08-04T09:58:22.847Z,23.00
2022-08-04T10:01:27.298Z,22.80
2022-08-04T10:04:32.232Z,23.00
2022-08-04T10:07:59.542Z,23.40
2022-08-04T10:11:54.488Z,23.40
2022-08-04T10:15:16.995Z,23.60
2022-08-04T10:18:50.979Z,23.50
2022-08-04T10:22:29.454Z,23.70
2022-08-04T10:26:08.538Z,23.70
2022-08-04T10:29:37.091Z,23.70
2022-08-04T10:32:44.779Z,23.40
2022-08-04T10:35:55.488Z,23.80
2022-08-04T10:39:07.416Z,23.40
2022-08-04T10:42:25.307Z,23.30
2022-08-04T10:45:58.045Z,23.40
2022-08-04T10:49:04.886Z,23.50
2022-08-04T10:52:34.099Z,23.60
2022-08-04T10:56:06.696Z,23.70
2022-08-04T10:59:21.461Z,23.90
2022-08-04T11:02:33.389Z,24.30
2022-08-04T11:06:03.675Z,23.90
2022-08-04T11:09:06.974Z,23.30
2022-08-04T11:12:21.738Z,23.20
2022-08-04T11:15:48.434Z,23.30
2022-08-04T11:19:04.699Z,23.30
2022-08-04T11:22:14.284Z,23.30
2022-08-04T11:25:40.838Z,23.40
2022-08-04T11:29:16.031Z,23.80
2022-08-04T11:32:24.863Z,23.40
2022-08-04T11:35:53.453Z,23.40
2022-08-04T11:39:12.771Z,23.50
2022-08-04T11:42:28.160Z,24.20
2022-08-04T11:45:53.736Z,24.50
2022-08-04T11:49:05.729Z,24.00
2022-08-04T11:52:10.557Z,24.10
2022-08-04T11:55:16.301Z,24.10
2022-08-04T11:58:20.792Z,24.10
2022-08-04T12:01:50.966Z,24.10
2022-08-04T12:04:58.103Z,23.70
2022-08-04T12:08:00.175Z,23.40
2022-08-04T12:11:28.497Z,23.50
2022-08-04T12:14:54.783Z,23.70
2022-08-04T12:18:19.069Z,23.80
2022-08-04T12:21:53.221Z,24.10
2022-08-04T12:25:29.476Z,23.50
2022-08-04T12:29:08.070Z,23.80
2022-08-04T12:32:32.521Z,23.40
2022-08-04T12:35:58.075Z,23.60
2022-08-04T12:39:27.194Z,24.00
2022-08-04T12:42:56.120Z,23.60
2022-08-04T12:46:05.552Z,23.50
2022-08-04T12:49:08.918Z,23.50
2022-08-04T12:52:14.960Z,23.30
2022-08-04T12:55:19.647Z,23.40
2022-08-04T12:58:43.443Z,23.60
2022-08-04T13:02:08.545Z,23.70
2022-08-04T13:05:17.197Z,23.70
2022-08-04T13:08:21.412Z,24.00
2022-08-04T13:11:24.708Z,24.00
2022-08-04T13:14:35.154Z,24.00
2022-08-04T13:17:52.928Z,24.30
2022-08-04T13:21:20.797Z,24.40
2022-08-04T13:24:32.254Z,24.30
2022-08-04T13:27:43.154Z,24.10
2022-08-04T13:30:48.126Z,24.10
2022-08-04T13:33:54.666Z,24.00
2022-08-04T13:36:57.895Z,24.10
2022-08-04T13:40:02.139Z,24.60
2022-08-04T13:43:06.478Z,24.60
2022-08-04T13:47:01.412Z,24.00
2022-08-04T13:50:18.010Z,24.00
2022-08-04T13:53:22.049Z,23.60
2022-08-04T13:56:29.114Z,23.90
2022-08-04T13:59:36.987Z,24.00
2022-08-04T14:02:59.035Z,24.10
2022-08-04T14:06:11.821Z,24.10
2022-08-04T14:09:17.654Z,24.50
2022-08-04T14:12:38.456Z,24.40
2022-08-04T14:16:02.702Z,24.00
2022-08-04T14:19:05.891Z,24.10
2022-08-04T14:22:27.420Z,24.10
2022-08-04T14:25:35.717Z,24.10
2022-08-04T14:29:25.475Z,24.50
2022-08-04T14:32:12.660Z,24.40
2022-08-04T14:35:38.377Z,24.00
2022-08-04T14:39:00.493Z,24.40
2022-08-04T14:42:03.109Z,23.90
2022-08-04T14:45:05.570Z,23.60
2022-08-04T14:48:12.707Z,23.60
2022-08-04T14:51:15.166Z,23.30
2022-08-04T14:54:18.702Z,23.20
2022-08-04T14:57:21.290Z,22.60
2022-08-04T15:00:30.138Z,22.70
2022-08-04T15:03:33.115Z,22.70
2022-08-04T15:06:36.502Z,23.00
2022-08-04T15:09:38.717Z,22.70
2022-08-04T15:12:41.011Z,23.30
2022-08-04T15:15:43.629Z,23.10
2022-08-04T15:19:07.736Z,23.00
2022-08-04T15:22:17.627Z,22.60
2022-08-04T15:25:20.190Z,22.80
2022-08-04T15:28:25.241Z,23.00
2022-08-04T15:32:05.838Z,22.80
2022-08-04T15:34:52.543Z,22.30
2022-08-04T15:37:57.418Z,22.70
2022-08-04T15:41:10.605Z,22.40
2022-08-04T15:44:48.831Z,22.60
2022-08-04T15:48:16.750Z,22.70
2022-08-04T15:51:30.476Z,22.70
2022-08-04T15:54:36.750Z,22.50
2022-08-04T15:58:09.502Z,22.90
2022-08-04T16:01:15.570Z,22.70
2022-08-04T16:04:22.979Z,22.70
2022-08-04T16:07:54.389Z,22.90
2022-08-04T16:10:56.606Z,23.10
2022-08-04T16:14:01.702Z,23.50
2022-08-04T16:17:18.132Z,23.40
2022-08-04T16:20:22.403Z,23.50
2022-08-04T16:23:54.413Z,23.90
2022-08-04T16:27:00.568Z,23.40
2022-08-04T16:30:13.558Z,23.60
2022-08-04T16:33:16.217Z,23.30
2022-08-04T16:36:56.705Z,23.40
2022-08-04T16:40:44.374Z,23.80
2022-08-04T16:43:46.599Z,23.50
2022-08-04T16:47:08.456Z,23.40
2022-08-04T16:50:10.895Z,23.50
2022-08-04T16:53:52.213Z,23.50
2022-08-04T16:56:35.968Z,23.50
2022-08-04T16:59:38.329Z,23.50
2022-08-04T17:02:40.623Z,23.20
2022-08-04T17:05:43.245Z,23.40
2022-08-04T17:08:48.992Z,23.50
2022-08-04T17:11:52.479Z,23.60
2022-08-04T17:14:54.643Z,23.50
2022-08-04T17:18:18.755Z,23.50
2022-08-04T17:21:30.444Z,23.70
2022-08-04T17:24:35.031Z,23.90
2022-08-04T17:28:19.080Z,24.20
2022-08-04T17:30:59.839Z,24.10
2022-08-04T17:34:19.619Z,24.10
2022-08-04T17:37:39.170Z,24.10
2022-08-04T17:40:51.921Z,24.00
2022-08-04T17:44:03.083Z,24.00
2022-08-04T17:47:16.694Z,24.20
2022-08-04T17:50:30.198Z,24.20
2022-08-04T17:54:01.833Z,24.30
2022-08-04T17:57:14.008Z,24.10
2022-08-04T18:00:19.482Z,24.10
2022-08-04T18:03:29.947Z,24.10
2022-08-04T18:06:32.374Z,24.10
2022-08-04T18:09:57.695Z,24.20
2022-08-04T18:13:14.149Z,24.10
2022-08-04T18:16:22.976Z,24.40
2022-08-04T18:19:25.890Z,24.30
2022-08-04T18:22:34.393Z,24.80
2022-08-04T18:25:50.461Z,25.70
2022-08-04T18:28:54.172Z,25.20
2022-08-04T18:31:56.664Z,25.40
2022-08-04T18:35:05.130Z,25.90
2022-08-04T18:38:22.809Z,26.30
2022-08-04T18:41:27.574Z,26.20
2022-08-04T18:44:52.659Z,26.80
2022-08-04T18:47:58.828Z,27.50
2022-08-04T18:51:23.064Z,26.90
2022-08-04T18:54:27.667Z,27.50
2022-08-04T18:57:32.282Z,28.00
2022-08-04T19:00:53.308Z,27.90
2022-08-04T19:04:00.092Z,28.10
2022-08-04T19:07:26.614Z,28.50
2022-08-04T19:10:26.731Z,28.40
2022-08-04T19:13:34.873Z,27.50
2022-08-04T19:16:40.728Z,28.30
2022-08-04T19:19:47.668Z,28.20
2022-08-04T19:24:29.584Z,27.90
2022-08-04T19:26:23.775Z,27.40
2022-08-04T19:29:37.666Z,27.50
2022-08-04T19:32:46.084Z,27.00
2022-08-04T19:35:51.007Z,27.30
2022-08-04T19:38:53.587Z,27.30
2022-08-04T19:42:04.382Z,27.00
2022-08-04T19:45:07.636Z,27.00
2022-08-04T19:48:16.687Z,27.00
2022-08-04T19:51:21.750Z,27.10
2022-08-04T19:54:27.360Z,27.20
2022-08-04T19:57:32.378Z,27.20
2022-08-04T20:00:58.309Z,27.20
2022-08-04T20:04:10.408Z,27.30
2022-08-04T20:07:23.795Z,27.10
2022-08-04T20:10:26.181Z,27.30
2022-08-04T20:13:37.279Z,27.30
2022-08-04T20:16:40.750Z,27.20
2022-08-04T20:19:51.342Z,27.30
2022-08-04T20:22:53.847Z,27.30
2022-08-04T20:26:14.188Z,27.40
2022-08-04T20:29:37.056Z,27.10
2022-08-04T20:32:41.906Z,27.20
2022-08-04T20:36:06.759Z,26.90
2022-08-04T20:39:10.931Z,27.00
2022-08-04T20:42:17.722Z,27.20
2022-08-04T20:45:55.683Z,27.40
2022-08-04T20:48:51.447Z,27.20
2022-08-04T20:51:56.456Z,27.30
2022-08-04T20:54:59.298Z,27.10
2022-08-04T20:58:03.374Z,27.30
2022-08-04T21:01:23.024Z,27.40
2022-08-04T21:04:34.578Z,27.40
2022-08-04T21:07:41.683Z,27.50
2022-08-04T21:10:47.468Z,27.10
2022-08-04T21:13:56.032Z,27.20
2022-08-04T21:16:59.688Z,27.00
2022-08-04T21:20:02.191Z,27.10
2022-08-04T21:23:05.197Z,27.20
2022-08-04T21:26:25.892Z,27.30
2022-08-04T21:29:34.541Z,27.40
2022-08-04T21:32:37.413Z,27.40
2022-08-04T21:35:40.006Z,27.50
2022-08-04T21:38:51.071Z,27.60
2022-08-04T21:42:27.811Z,27.70
2022-08-04T21:45:16.527Z,27.70
2022-08-04T21:48:21.481Z,27.80
2022-08-04T21:51:59.400Z,27.80
2022-08-04T21:54:48.213Z,27.90
2022-08-04T21:57:56.369Z,27.90
2022-08-04T22:01:00.937Z,27.90
2022-08-04T22:04:14.523Z,28.20
2022-08-04T22:07:16.935Z,28.20
2022-08-04T22:10:32.199Z,28.20
2022-08-04T22:13:52.512Z,28.70
2022-08-04T22:20:27.189Z,28.20
2022-08-04T22:23:30.862Z,28.30
2022-08-04T22:26:47.482Z,28.30
2022-08-04T22:29:49.682Z,28.20
2022-08-04T22:32:52.409Z,28.40
2022-08-04T22:35:54.330Z,28.30
2022-08-04T22:39:04.530Z,28.30
2022-08-04T22:42:09.040Z,28.20
2022-08-04T22:45:15.706Z,28.20
2022-08-04T22:48:18.081Z,28.30
2022-08-04T22:51:21.342Z,28.30
2022-08-04T22:54:26.063Z,28.20
2022-08-04T22:57:43.013Z,28.20
2022-08-04T23:00:54.107Z,28.10
2022-08-04T23:04:00.428Z,28.30
2022-08-04T23:07:09.069Z,28.30
2022-08-04T23:10:11.984Z,28.20
2022-08-04T23:13:14.651Z,28.20
2022-08-04T23:16:18.955Z,28.20
2022-08-04T23:19:21.656Z,28.20
2022-08-04T23:22:37.175Z,28.20
2022-08-04T23:26:07.859Z,28.20
2022-08-04T23:29:07.974Z,28.20
2022-08-04T23:32:09.886Z,28.30
2022-08-04T23:35:12.047Z,28.20
2022-08-04T23:38:31.209Z,28.40
2022-08-04T23:41:55.255Z,28.40
2022-08-04T23:44:57.223Z,28.50
2022-08-04T23:48:15.516Z,28.50
2022-08-04T23:51:21.144Z,28.50
2022-08-04T23:54:25.947Z,28.50
2022-08-04T23:57:31.204Z,28.60
